^^
Station Historical Data
Daily Summary for February 13, 2018 Units:  English    Metric   Both
« Previous Day
Next Day »
Daily Weekly Monthly Yearly Custom
  High: Low: Average:
Temperature: TemperatureF °F 21.2 °F 27.9 °F
Dew Point: DewpointF °F 10.1 °F 15.7 °F
Humidity: Humidity% 35% 60%
Wind Speed: WindSpeedMPHmph 0.0mph 0.7mph
Wind Gust: WindSpeedGustMPHmph - -
Wind- - West
Pressure: PressureIn in 30.59 in -
Precipitation: 0.00 in    
Historical Graphs
 
 
Tabular Data for February 13, 2018
Time Temperature Dew Point Pressure Wind Wind Speed Wind Gust Humidity Rainfall Rate (Hourly) Conditions
TemperatureF °F DewpointF °F PressureIn in Calm     Humidity% HourlyPrecipIn in Conditions
00:00 29.6 °F 17.8 °F 30.70 in Calm   4.0 mph 61% 0.00 in CLR
00:10 29.3 °F 18.3 °F 30.71 in Calm   2.0 mph 63% 0.00 in CLR
00:20 28.8 °F 18.9 °F 30.71 in Calm   6.0 mph 66% 0.00 in CLR
00:30 28.3 °F 18.4 °F 30.72 in NNW 1.0 mph 3.0 mph 66% 0.00 in CLR
00:40 28.0 °F 18.8 °F 30.71 in Calm   4.0 mph 68% 0.00 in CLR
00:50 27.7 °F 18.5 °F 30.72 in NNW 1.0 mph 4.0 mph 68% 0.00 in CLR
01:00 27.5 °F 18.3 °F 30.72 in Calm   4.0 mph 68% 0.00 in CLR
01:10 27.4 °F 17.9 °F 30.72 in NNW 1.0 mph 5.0 mph 67% 0.00 in CLR
01:20 27.2 °F 18.0 °F 30.72 in Calm   5.0 mph 68% 0.00 in CLR
01:30 27.0 °F 17.8 °F 30.73 in Calm   4.0 mph 68% 0.00 in CLR
01:40 26.8 °F 18.0 °F 30.73 in NW 1.0 mph 5.0 mph 69% 0.00 in CLR
01:50 26.5 °F 17.4 °F 30.74 in NNW 1.0 mph 5.0 mph 68% 0.00 in CLR
02:00 26.2 °F 17.1 °F 30.75 in Calm   5.0 mph 68% 0.00 in CLR
02:10 25.9 °F 16.4 °F 30.75 in Calm   2.0 mph 67% 0.00 in CLR
02:20 25.7 °F 16.6 °F 30.75 in Calm   5.0 mph 68% 0.00 in CLR
02:30 25.5 °F 16.4 °F 30.75 in NW 1.0 mph 5.0 mph 68% 0.00 in CLR
02:40 25.4 °F 16.3 °F 30.75 in NW 1.0 mph 7.0 mph 68% 0.00 in CLR
02:50 25.2 °F 15.8 °F 30.75 in NNW 3.0 mph 7.0 mph 67% 0.00 in CLR
03:00 25.0 °F 15.6 °F 30.75 in NW 2.0 mph 5.0 mph 67% 0.00 in CLR
03:10 24.9 °F 15.5 °F 30.76 in NNW 1.0 mph 8.0 mph 67% 0.00 in CLR
03:20 24.7 °F 15.3 °F 30.76 in Calm   4.0 mph 67% 0.00 in CLR
03:30 24.4 °F 15.4 °F 30.76 in Calm   5.0 mph 68% 0.00 in CLR
03:50 24.0 °F 15.0 °F 30.77 in North 1.0 mph 4.0 mph 68% 0.00 in CLR
04:00 23.9 °F 14.9 °F 30.77 in Calm   7.0 mph 68% 0.00 in CLR
04:10 23.7 °F 15.0 °F 30.78 in Calm   4.0 mph 69% 0.00 in CLR
04:20 23.4 °F 14.7 °F 30.77 in Calm   1.0 mph 69% 0.00 in CLR
04:30 23.3 °F 14.3 °F 30.78 in NNW 1.0 mph 5.0 mph 68% 0.00 in CLR
04:40 23.2 °F 14.5 °F 30.79 in Calm   3.0 mph 69% 0.00 in CLR
04:50 23.1 °F 14.4 °F 30.80 in Calm   2.0 mph 69% 0.00 in CLR
05:00 22.9 °F 14.2 °F 30.80 in Calm   1.0 mph 69% 0.00 in CLR
05:10 22.9 °F 14.2 °F 30.80 in Calm   4.0 mph 69% 0.00 in CLR
05:20 22.8 °F 14.1 °F 30.80 in NNW 1.0 mph 6.0 mph 69% 0.00 in CLR
05:30 22.7 °F 14.1 °F 30.80 in North 1.0 mph 7.0 mph 69% 0.00 in CLR
05:40 22.5 °F 13.9 °F 30.81 in Calm   2.0 mph 69% 0.00 in CLR
05:50 22.3 °F 13.7 °F 30.80 in NNW 1.0 mph 4.0 mph 69% 0.00 in CLR
06:00 22.0 °F 13.7 °F 30.80 in NNW 1.0 mph 5.0 mph 70% 0.00 in CLR
06:10 21.9 °F 13.6 °F 30.80 in North 1.0 mph 5.0 mph 70% 0.00 in CLR
06:20 21.8 °F 13.5 °F 30.80 in NNW 1.0 mph 4.0 mph 70% 0.00 in CLR
06:30 21.6 °F 13.3 °F 30.81 in NW 1.0 mph 7.0 mph 70% 0.00 in CLR
06:40 21.5 °F 12.9 °F 30.82 in Calm   4.0 mph 69% 0.00 in CLR
06:50 21.5 °F 12.9 °F 30.82 in Calm   5.0 mph 69% 0.00 in CLR
06:59 21.3 °F 13.0 °F 30.82 in Calm   2.0 mph 70% 0.00 in CLR
07:10 21.3 °F 13.0 °F 30.82 in NNW 1.0 mph 4.0 mph 70% 0.00 in CLR
07:20 21.2 °F 12.9 °F 30.83 in Calm   3.0 mph 70% 0.00 in CLR
07:30 21.3 °F 12.7 °F 30.83 in Calm   4.0 mph 69% 0.00 in CLR
07:40 21.4 °F 12.5 °F 30.83 in NNW 2.0 mph 6.0 mph 68% 0.00 in CLR
07:50 21.7 °F 12.4 °F 30.83 in NNW 1.0 mph 10.0 mph 67% 0.00 in CLR
08:00 21.9 °F 12.3 °F 30.84 in NNW 1.0 mph 8.0 mph 66% 0.00 in CLR
08:10 22.1 °F 11.8 °F 30.84 in NNW 2.0 mph 7.0 mph 64% 0.00 in CLR
08:20 22.4 °F 12.0 °F 30.85 in North 2.0 mph 8.0 mph 64% 0.00 in CLR
08:30 22.8 °F 12.1 °F 30.86 in North 2.0 mph 8.0 mph 63% 0.00 in CLR
08:40 23.2 °F 12.1 °F 30.85 in NNW 2.0 mph 9.0 mph 62% 0.00 in CLR
08:50 23.8 °F 12.7 °F 30.86 in NNE 2.0 mph 10.0 mph 62% 0.00 in CLR
09:00 24.3 °F 12.4 °F 30.86 in Calm   9.0 mph 60% 0.00 in CLR
09:10 24.9 °F 12.9 °F 30.86 in North 1.0 mph 6.0 mph 60% 0.00 in CLR
09:20 25.2 °F 12.5 °F 30.86 in NNW 1.0 mph 8.0 mph 58% 0.00 in CLR
09:30 26.3 °F 13.5 °F 30.86 in NNW 2.0 mph 8.0 mph 58% 0.00 in CLR
09:40 26.9 °F 13.7 °F 30.86 in Calm   7.0 mph 57% 0.00 in CLR
09:50 26.7 °F 13.9 °F 30.86 in WNW 3.0 mph 7.0 mph 58% 0.00 in CLR
10:00 26.6 °F 13.4 °F 30.86 in NW 2.0 mph 6.0 mph 57% 0.00 in CLR
10:10 26.9 °F 14.1 °F 30.86 in NNW 1.0 mph 5.0 mph 58% 0.00 in CLR
10:20 27.3 °F 14.1 °F 30.86 in North 1.0 mph 7.0 mph 57% 0.00 in CLR
10:30 27.9 °F 14.2 °F 30.85 in WNW 1.0 mph 7.0 mph 56% 0.00 in CLR
10:40 28.2 °F 13.7 °F 30.85 in NNW 3.0 mph 7.0 mph 54% 0.00 in CLR
10:50 27.9 °F 13.8 °F 30.85 in Calm   6.0 mph 55% 0.00 in CLR
11:00 28.3 °F 14.2 °F 30.85 in NNE 2.0 mph 6.0 mph 55% 0.00 in CLR
11:10 28.8 °F 14.2 °F 30.85 in North 1.0 mph 7.0 mph 54% 0.00 in CLR
11:20 29.4 °F 14.3 °F 30.85 in WNW 1.0 mph 6.0 mph 53% 0.00 in CLR
11:30 29.3 °F 13.8 °F 30.84 in Calm   7.0 mph 52% 0.00 in CLR
11:40 29.4 °F 13.0 °F 30.84 in NNW 1.0 mph 5.0 mph 50% 0.00 in CLR
11:50 30.0 °F 13.6 °F 30.83 in WSW 1.0 mph 5.0 mph 50% 0.00 in CLR
12:00 30.6 °F 14.6 °F 30.83 in West 1.0 mph 4.0 mph 51% 0.00 in CLR
12:10 30.2 °F 13.3 °F 30.83 in West 2.0 mph 5.0 mph 49% 0.00 in CLR
12:20 30.5 °F 13.6 °F 30.83 in Calm   7.0 mph 49% 0.00 in CLR
12:30 31.7 °F 14.7 °F 30.82 in West 1.0 mph 5.0 mph 49% 0.00 in CLR
12:40 31.0 °F 13.1 °F 30.81 in WNW 2.0 mph 6.0 mph 47% 0.00 in CLR
12:50 30.9 °F 14.0 °F 30.81 in WSW 1.0 mph 6.0 mph 49% 0.00 in CLR
13:00 31.0 °F 13.1 °F 30.81 in West 1.0 mph 9.0 mph 47% 0.00 in CLR
13:10 31.6 °F 13.7 °F 30.80 in Calm   4.0 mph 47% 0.00 in CLR
13:20 31.5 °F 12.6 °F 30.79 in West 2.0 mph 5.0 mph 45% 0.00 in CLR
13:30 32.1 °F 13.6 °F 30.78 in WSW 1.0 mph 5.0 mph 46% 0.00 in CLR
13:40 32.4 °F 13.9 °F 30.78 in Calm   3.0 mph 46% 0.00 in CLR
13:50 32.6 °F 14.1 °F 30.77 in WNW 2.0 mph 5.0 mph 46% 0.00 in CLR
14:00 32.9 °F 14.4 °F 30.76 in WSW 1.0 mph 5.0 mph 46% 0.00 in CLR
14:10 33.1 °F 14.0 °F 30.77 in WNW 2.0 mph 5.0 mph 45% 0.00 in CLR
14:20 33.2 °F 14.1 °F 30.77 in SW 2.0 mph 7.0 mph 45% 0.00 in CLR
14:30 33.0 °F 13.4 °F 30.77 in West 2.0 mph 4.0 mph 44% 0.00 in CLR
14:40 33.3 °F 14.3 °F 30.76 in WSW 3.0 mph 6.0 mph 45% 0.00 in CLR
14:50 33.7 °F 14.6 °F 30.76 in WSW 1.0 mph 5.0 mph 45% 0.00 in CLR
15:00 34.9 °F 15.1 °F 30.76 in SW 2.0 mph 6.0 mph 44% 0.00 in CLR
15:10 34.5 °F 14.8 °F 30.75 in SW 3.0 mph 8.0 mph 44% 0.00 in CLR
15:20 35.4 °F 15.1 °F 30.75 in South 3.0 mph 6.0 mph 43% 0.00 in CLR
15:30 35.0 °F 14.7 °F 30.76 in SSW 1.0 mph 9.0 mph 43% 0.00 in CLR
15:40 35.1 °F 13.7 °F 30.76 in SW 2.0 mph 10.0 mph 41% 0.00 in CLR
15:50 35.0 °F 13.6 °F 30.76 in South 3.0 mph 6.0 mph 41% 0.00 in CLR
16:10 35.0 °F 10.1 °F 30.76 in South 1.0 mph 6.0 mph 35% 0.00 in CLR
16:20 35.2 °F 10.9 °F 30.76 in Calm   4.0 mph 36% 0.00 in CLR
16:30 34.8 °F 10.5 °F 30.76 in Calm   3.0 mph 36% 0.00 in CLR
16:40 34.7 °F 10.4 °F 30.76 in Calm   4.0 mph 36% 0.00 in CLR
16:50 34.7 °F 11.0 °F 30.75 in Calm   3.0 mph 37% 0.00 in CLR
17:00 34.4 °F 11.4 °F 30.75 in Calm   2.0 mph 38% 0.00 in CLR
17:10 33.4 °F 11.6 °F 30.74 in Calm   3.0 mph 40% 0.00 in CLR
17:20 32.5 °F 11.9 °F 30.74 in Calm   3.0 mph 42% 0.00 in CLR
17:30 31.7 °F 12.3 °F 30.74 in Calm   1.0 mph 44% 0.00 in CLR
17:40 31.0 °F 12.1 °F 30.75 in Calm   1.0 mph 45% 0.00 in CLR
17:50 30.5 °F 13.1 °F 30.74 in Calm   4.0 mph 48% 0.00 in CLR
18:00 30.0 °F 12.2 °F 30.75 in Calm   1.0 mph 47% 0.00 in CLR
18:10 29.7 °F 12.3 °F 30.74 in Calm   1.0 mph 48% 0.00 in CLR
18:20 29.4 °F 12.1 °F 30.74 in Calm   1.0 mph 48% 0.00 in CLR
18:30 29.3 °F 12.9 °F 30.73 in Calm   1.0 mph 50% 0.00 in CLR
18:40 29.1 °F 14.1 °F 30.73 in Calm   2.0 mph 53% 0.00 in CLR
18:50 29.0 °F 15.6 °F 30.73 in South 1.0 mph 3.0 mph 57% 0.00 in CLR
19:00 29.1 °F 17.7 °F 30.72 in SSE 2.0 mph 6.0 mph 62% 0.00 in CLR
19:10 29.0 °F 18.4 °F 30.72 in SSW 2.0 mph 6.0 mph 64% 0.00 in CLR
19:20 28.9 °F 19.0 °F 30.72 in SSW 2.0 mph 9.0 mph 66% 0.00 in CLR
19:30 28.7 °F 18.8 °F 30.72 in Calm   5.0 mph 66% 0.00 in CLR
19:40 28.5 °F 18.9 °F 30.72 in Calm   3.0 mph 67% 0.00 in CLR
19:50 28.3 °F 18.7 °F 30.71 in Calm   2.0 mph 67% 0.00 in CLR
20:00 28.4 °F 19.5 °F 30.71 in Calm   2.0 mph 69% 0.00 in CLR
20:10 28.6 °F 20.1 °F 30.71 in Calm   2.0 mph 70% 0.00 in FEW
20:20 28.9 °F 20.7 °F 30.71 in Calm   3.0 mph 71% 0.00 in FEW
20:30 29.2 °F 21.3 °F 30.70 in Calm   3.0 mph 72% 0.00 in FEW
20:40 29.4 °F 21.8 °F 30.70 in Calm   3.0 mph 73% 0.00 in FEW
20:50 29.5 °F 22.2 °F 30.69 in Calm   1.0 mph 74% 0.00 in FEW
20:59 29.7 °F 22.7 °F 30.69 in Calm   1.0 mph 75% 0.00 in FEW
21:10 29.7 °F 22.8 °F 30.68 in Calm   1.0 mph 75% 0.00 in BKN
21:20 29.7 °F 22.7 °F 30.68 in Calm   1.0 mph 75% 0.00 in BKN
21:30 29.8 °F 23.2 °F 30.67 in Calm   1.0 mph 76% 0.00 in BKN
21:40 29.8 °F 23.2 °F 30.66 in Calm   3.0 mph 76% 0.00 in BKN
21:50 29.8 °F 23.2 °F 30.66 in Calm   1.0 mph 76% 0.00 in BKN
22:00 29.9 °F 23.6 °F 30.65 in Calm   1.0 mph 77% 0.00 in BKN
22:10 29.9 °F 23.6 °F 30.65 in Calm   1.0 mph 77% 0.00 in BKN
22:20 29.9 °F 23.6 °F 30.64 in Calm   1.0 mph 77% 0.00 in BKN
22:30 29.8 °F 23.8 °F 30.64 in Calm   1.0 mph 78% 0.00 in BKN
22:40 29.6 °F 23.6 °F 30.63 in Calm     78% 0.00 in BKN
22:50 29.5 °F 23.8 °F 30.63 in Calm     79% 0.00 in BKN
23:00 29.7 °F 24.3 °F 30.62 in Calm   1.0 mph 80% 0.00 in BKN
23:10 29.7 °F 24.3 °F 30.61 in Calm     80% 0.00 in BKN
23:20 29.7 °F 24.3 °F 30.60 in Calm     80% 0.00 in BKN
23:30 29.8 °F 24.4 °F 30.60 in Calm   1.0 mph 80% 0.00 in BKN
23:40 29.9 °F 24.5 °F 30.59 in Calm     80% 0.00 in BKN
23:50 30.0 °F 24.6 °F 30.60 in Calm     80% 0.00 in BKN
TarryTown NY Weather
Compliments of Weather Underground - 1.75 mb